createdAt,value
2023-04-23T00:02:10.546Z,104
2023-04-23T00:03:11.561Z,104
2023-04-23T00:04:11.788Z,104
2023-04-23T00:06:10.601Z,104
2023-04-23T00:07:10.802Z,107
2023-04-23T00:08:11.107Z,107
2023-04-23T00:09:10.229Z,107
2023-04-23T00:10:11.021Z,107
2023-04-23T00:11:10.467Z,107
2023-04-23T00:12:10.946Z,107
2023-04-23T00:13:11.125Z,107
2023-04-23T00:14:10.676Z,107
2023-04-23T00:15:11.108Z,107
2023-04-23T00:18:10.504Z,107
2023-04-23T00:19:10.423Z,107
2023-04-23T00:20:10.668Z,107
2023-04-23T00:21:10.759Z,107
2023-04-23T00:22:11.327Z,107
2023-04-23T00:23:10.407Z,107
2023-04-23T00:24:10.668Z,107
2023-04-23T00:25:10.392Z,107
2023-04-23T00:26:10.616Z,107
2023-04-23T00:27:10.570Z,107
2023-04-23T00:28:10.600Z,107
2023-04-23T00:29:10.904Z,107
2023-04-23T00:30:10.912Z,107
2023-04-23T00:31:10.649Z,107
2023-04-23T00:32:11.429Z,107
2023-04-23T00:33:10.184Z,107
2023-04-23T00:34:10.487Z,107
2023-04-23T00:35:10.943Z,107
2023-04-23T00:36:10.383Z,107
2023-04-23T00:37:10.690Z,107
2023-04-23T00:38:10.379Z,107
2023-04-23T00:39:10.455Z,107
2023-04-23T00:40:10.592Z,107
2023-04-23T00:41:10.637Z,107
2023-04-23T00:42:10.669Z,107
2023-04-23T00:43:10.991Z,107
2023-04-23T00:44:11.297Z,107
2023-04-23T00:45:10.171Z,107
2023-04-23T00:46:11.554Z,107
2023-04-23T00:47:10.487Z,107
2023-04-23T00:48:10.450Z,107
2023-04-23T00:49:10.728Z,107
2023-04-23T00:52:10.554Z,107
2023-04-23T00:53:10.408Z,107
2023-04-23T00:54:11.135Z,107
2023-04-23T00:55:10.656Z,107
2023-04-23T00:56:11.119Z,107
2023-04-23T00:57:10.109Z,107
2023-04-23T00:58:10.725Z,107
2023-04-23T00:59:11.199Z,107
2023-04-23T01:03:11.712Z,107
2023-04-23T01:04:11.162Z,107
2023-04-23T01:06:10.341Z,107
2023-04-23T01:07:10.817Z,105
2023-04-23T01:08:11.094Z,105
2023-04-23T01:09:10.743Z,105
2023-04-23T01:10:11.016Z,105
2023-04-23T01:11:10.921Z,105
2023-04-23T01:12:10.741Z,105
2023-04-23T01:13:10.678Z,105
2023-04-23T01:14:10.409Z,105
2023-04-23T01:15:10.545Z,105
2023-04-23T01:19:10.652Z,105
2023-04-23T01:20:11.183Z,105
2023-04-23T01:21:10.220Z,105
2023-04-23T01:22:10.545Z,105
2023-04-23T01:23:10.768Z,105
2023-04-23T01:24:10.383Z,105
2023-04-23T01:25:10.509Z,105
2023-04-23T01:26:10.356Z,105
2023-04-23T01:27:11.046Z,105
2023-04-23T01:28:11.321Z,105
2023-04-23T01:29:11.186Z,105
2023-04-23T01:30:10.744Z,105
2023-04-23T01:32:10.662Z,105
2023-04-23T01:33:11.157Z,105
2023-04-23T01:34:10.016Z,105
2023-04-23T01:35:10.246Z,105
2023-04-23T01:36:10.259Z,105
2023-04-23T01:37:11.522Z,105
2023-04-23T01:38:10.763Z,105
2023-04-23T01:39:11.083Z,105
2023-04-23T01:40:10.480Z,105
2023-04-23T01:41:11.087Z,105
2023-04-23T01:42:10.803Z,105
2023-04-23T01:45:11.168Z,105
2023-04-23T01:46:10.907Z,105
2023-04-23T01:47:11.605Z,105
2023-04-23T01:48:10.254Z,105
2023-04-23T01:49:10.572Z,105
2023-04-23T01:50:11.509Z,105
2023-04-23T01:51:10.327Z,105
2023-04-23T01:52:11.186Z,105
2023-04-23T01:55:10.527Z,105
2023-04-23T01:56:11.018Z,105
2023-04-23T01:57:11.398Z,105
2023-04-23T01:59:10.489Z,105
2023-04-23T02:00:10.882Z,105
2023-04-23T02:01:10.858Z,105
2023-04-23T02:02:11.356Z,105
2023-04-23T02:03:11.533Z,105
2023-04-23T02:04:10.843Z,105
2023-04-23T02:05:09.985Z,105
2023-04-23T02:06:11.150Z,105
2023-04-23T02:10:10.333Z,111
2023-04-23T02:11:10.621Z,111
2023-04-23T02:12:09.477Z,111
2023-04-23T02:13:10.864Z,111
2023-04-23T02:14:11.219Z,111
2023-04-23T02:15:11.082Z,111
2023-04-23T02:16:10.860Z,111
2023-04-23T02:17:11.171Z,111
2023-04-23T02:18:10.989Z,111
2023-04-23T02:19:09.435Z,111
2023-04-23T02:20:10.756Z,111
2023-04-23T02:21:10.949Z,111
2023-04-23T02:22:11.127Z,111
2023-04-23T02:23:10.341Z,111
2023-04-23T02:24:10.593Z,111
2023-04-23T02:25:10.714Z,111
2023-04-23T02:26:10.803Z,111
2023-04-23T02:27:10.958Z,111
2023-04-23T02:28:10.577Z,111
2023-04-23T02:29:11.002Z,111
2023-04-23T02:30:10.914Z,111
2023-04-23T02:31:10.511Z,111
2023-04-23T02:32:10.988Z,111
2023-04-23T02:33:11.130Z,111
2023-04-23T02:34:10.434Z,111
2023-04-23T02:35:10.609Z,111
2023-04-23T02:36:11.124Z,111
2023-04-23T02:37:10.722Z,111
2023-04-23T02:41:10.777Z,111
2023-04-23T02:42:11.260Z,111
2023-04-23T02:43:10.320Z,111
2023-04-23T02:44:09.868Z,111
2023-04-23T02:45:11.137Z,111
2023-04-23T02:46:10.561Z,111
2023-04-23T02:51:10.634Z,111
2023-04-23T02:52:10.911Z,111
2023-04-23T02:53:10.539Z,111
2023-04-23T02:54:11.365Z,111
2023-04-23T02:55:10.703Z,111
2023-04-23T02:56:10.901Z,111
2023-04-23T03:02:11.369Z,111
2023-04-23T03:03:12.838Z,111
2023-04-23T03:05:10.498Z,111
2023-04-23T03:07:10.467Z,105
2023-04-23T03:08:10.854Z,105
2023-04-23T03:09:11.377Z,105
2023-04-23T03:11:10.959Z,105
2023-04-23T03:12:11.255Z,105
2023-04-23T03:13:10.417Z,105
2023-04-23T03:14:11.065Z,105
2023-04-23T03:15:10.808Z,105
2023-04-23T03:16:10.967Z,105
2023-04-23T03:17:11.445Z,105
2023-04-23T03:19:10.689Z,105
2023-04-23T03:23:10.246Z,105
2023-04-23T03:24:11.108Z,105
2023-04-23T03:25:11.236Z,105
2023-04-23T03:26:10.192Z,105
2023-04-23T03:27:10.982Z,105
2023-04-23T03:28:10.395Z,105
2023-04-23T03:29:10.832Z,105
2023-04-23T03:30:11.142Z,105
2023-04-23T03:31:10.360Z,105
2023-04-23T03:32:11.215Z,105
2023-04-23T03:33:10.396Z,105
2023-04-23T03:34:10.664Z,105
2023-04-23T03:35:10.825Z,105
2023-04-23T03:36:10.231Z,105
2023-04-23T03:39:10.426Z,105
2023-04-23T03:40:10.180Z,105
2023-04-23T03:41:10.260Z,105
2023-04-23T03:42:10.477Z,105
2023-04-23T03:43:09.831Z,105
2023-04-23T03:44:11.023Z,105
2023-04-23T03:45:11.344Z,105
2023-04-23T03:46:10.755Z,105
2023-04-23T03:47:10.948Z,105
2023-04-23T03:48:10.884Z,105
2023-04-23T03:49:10.995Z,105
2023-04-23T03:50:09.903Z,105
2023-04-23T03:51:11.032Z,105
2023-04-23T03:56:10.449Z,105
2023-04-23T03:57:10.784Z,105
2023-04-23T03:58:11.035Z,105
2023-04-23T03:59:10.384Z,105
2023-04-23T04:00:10.753Z,105
2023-04-23T04:01:10.959Z,105
2023-04-23T04:02:11.410Z,105
2023-04-23T04:06:10.908Z,105
2023-04-23T04:07:11.267Z,108
2023-04-23T04:08:10.267Z,108
2023-04-23T04:09:10.930Z,108
2023-04-23T04:10:11.292Z,108
2023-04-23T04:11:10.234Z,108
2023-04-23T04:12:10.244Z,108
2023-04-23T04:13:10.709Z,108
2023-04-23T04:14:10.986Z,108
2023-04-23T04:15:10.361Z,108
2023-04-23T04:16:10.900Z,108
2023-04-23T04:17:10.115Z,108
2023-04-23T04:18:10.432Z,108
2023-04-23T04:19:11.110Z,108
2023-04-23T04:20:11.035Z,108
2023-04-23T04:26:10.237Z,108
2023-04-23T04:27:10.673Z,108
2023-04-23T04:28:11.103Z,108
2023-04-23T04:29:10.624Z,108
2023-04-23T04:30:10.826Z,108
2023-04-23T04:31:10.931Z,108
2023-04-23T04:32:10.567Z,108
2023-04-23T04:33:10.888Z,108
2023-04-23T04:34:10.260Z,108
2023-04-23T04:35:10.717Z,108
2023-04-23T04:36:11.081Z,108
2023-04-23T04:37:10.391Z,108
2023-04-23T04:38:10.664Z,108
2023-04-23T04:39:10.999Z,108
2023-04-23T04:43:10.402Z,108
2023-04-23T04:44:10.982Z,108
2023-04-23T04:45:10.827Z,108
2023-04-23T04:46:12.035Z,108
2023-04-23T04:47:11.236Z,108
2023-04-23T04:50:10.571Z,108
2023-04-23T04:51:10.541Z,108
2023-04-23T04:52:10.663Z,108
2023-04-23T04:53:11.131Z,108
2023-04-23T04:54:10.200Z,108
2023-04-23T04:55:10.515Z,108
2023-04-23T04:56:10.444Z,108
2023-04-23T04:57:09.545Z,108
2023-04-23T04:58:10.652Z,108
2023-04-23T04:59:10.792Z,108
2023-04-23T05:00:11.015Z,108
2023-04-23T05:01:10.903Z,108
2023-04-23T05:02:11.345Z,108
2023-04-23T05:03:14.364Z,108
2023-04-23T05:05:11.017Z,108
2023-04-23T05:06:10.515Z,108
2023-04-23T05:07:10.869Z,107
2023-04-23T05:08:11.179Z,107
2023-04-23T05:12:10.262Z,107
2023-04-23T05:13:10.894Z,107
2023-04-23T05:14:11.061Z,107
2023-04-23T05:16:11.171Z,107
2023-04-23T05:20:11.041Z,107
2023-04-23T05:21:11.267Z,107
2023-04-23T05:22:10.317Z,107
2023-04-23T05:23:09.650Z,107
2023-04-23T05:24:10.854Z,107
2023-04-23T05:25:11.034Z,107
2023-04-23T05:26:10.567Z,107
2023-04-23T05:27:10.738Z,107
2023-04-23T05:28:11.094Z,107
2023-04-23T05:29:09.453Z,107
2023-04-23T05:30:11.033Z,107
2023-04-23T05:32:11.327Z,107
2023-04-23T05:34:10.237Z,107
2023-04-23T05:35:10.688Z,107
2023-04-23T05:36:10.447Z,107
2023-04-23T05:37:10.675Z,107
2023-04-23T05:38:10.929Z,107
2023-04-23T05:39:11.100Z,107
2023-04-23T05:40:10.990Z,107
2023-04-23T05:41:11.013Z,107
2023-04-23T05:42:11.076Z,107
2023-04-23T05:43:10.999Z,107
2023-04-23T05:44:10.289Z,107
2023-04-23T05:45:13.310Z,107
2023-04-23T05:48:10.805Z,107
2023-04-23T05:49:11.043Z,107
2023-04-23T05:50:10.937Z,107
2023-04-23T05:51:10.973Z,107
2023-04-23T05:52:11.139Z,107
2023-04-23T05:53:10.236Z,107
2023-04-23T05:54:10.536Z,107
2023-04-23T05:55:11.038Z,107
2023-04-23T05:56:11.094Z,107
2023-04-23T05:57:10.320Z,107
2023-04-23T05:58:10.870Z,107
2023-04-23T06:01:10.311Z,107
2023-04-23T06:02:10.524Z,107
2023-04-23T06:03:11.422Z,107
2023-04-23T06:04:11.872Z,107
2023-04-23T06:05:11.388Z,107
2023-04-23T06:06:10.763Z,107
2023-04-23T06:07:10.905Z,110
2023-04-23T06:08:11.177Z,110
2023-04-23T06:12:10.309Z,110
2023-04-23T06:13:10.514Z,110
2023-04-23T06:14:10.788Z,110
2023-04-23T06:15:11.330Z,110
2023-04-23T06:16:10.468Z,110
2023-04-23T06:17:10.527Z,110
2023-04-23T06:18:10.543Z,110
2023-04-23T06:19:10.888Z,110
2023-04-23T06:21:10.752Z,110
2023-04-23T06:22:10.328Z,110
2023-04-23T06:23:10.440Z,110
2023-04-23T06:24:10.947Z,110
2023-04-23T06:25:09.724Z,110
2023-04-23T06:26:11.031Z,110
2023-04-23T06:28:09.560Z,110
2023-04-23T06:29:10.524Z,110
2023-04-23T06:30:11.077Z,110
2023-04-23T06:31:11.190Z,110
2023-04-23T06:32:10.265Z,110
2023-04-23T06:33:10.623Z,110
2023-04-23T06:34:10.698Z,110
2023-04-23T06:35:12.194Z,110
2023-04-23T06:36:10.252Z,110
2023-04-23T06:37:10.743Z,110
2023-04-23T06:38:10.974Z,110
2023-04-23T06:41:10.475Z,110
2023-04-23T06:42:10.616Z,110
2023-04-23T06:43:11.255Z,110
2023-04-23T06:45:13.594Z,110
2023-04-23T06:46:11.297Z,110
2023-04-23T06:47:10.272Z,110
2023-04-23T06:48:10.679Z,110
2023-04-23T06:49:10.706Z,110
2023-04-23T06:50:10.931Z,110
2023-04-23T06:51:10.606Z,110
2023-04-23T06:52:10.625Z,110
2023-04-23T06:53:10.881Z,110
2023-04-23T06:54:11.124Z,110
2023-04-23T06:55:10.540Z,110
2023-04-23T06:56:10.496Z,110
2023-04-23T06:57:10.662Z,110
2023-04-23T06:58:11.161Z,110
2023-04-23T06:59:10.293Z,110
2023-04-23T07:00:10.457Z,110
2023-04-23T07:01:11.279Z,110
2023-04-23T07:02:10.401Z,110
2023-04-23T07:03:11.489Z,110
2023-04-23T07:05:09.973Z,110
2023-04-23T07:06:11.363Z,110
2023-04-23T07:07:10.516Z,108
2023-04-23T07:08:10.906Z,108
2023-04-23T07:09:11.204Z,108
2023-04-23T07:10:10.432Z,108
2023-04-23T07:11:10.573Z,108
2023-04-23T07:12:10.992Z,108
2023-04-23T07:13:11.069Z,108
2023-04-23T07:14:10.358Z,108
2023-04-23T07:15:10.787Z,108
2023-04-23T07:16:11.001Z,108
2023-04-23T07:17:11.253Z,108
2023-04-23T07:18:10.565Z,108
2023-04-23T07:19:10.118Z,108
2023-04-23T07:20:10.753Z,108
2023-04-23T07:21:10.883Z,108
2023-04-23T07:22:11.051Z,108
2023-04-23T07:23:10.699Z,108
2023-04-23T07:24:10.911Z,108
2023-04-23T07:25:10.988Z,108
2023-04-23T07:26:11.240Z,108
2023-04-23T07:27:10.296Z,108
2023-04-23T07:28:10.619Z,108
2023-04-23T07:29:11.225Z,108
2023-04-23T07:30:11.231Z,108
2023-04-23T07:31:10.238Z,108
2023-04-23T07:32:10.920Z,108
2023-04-23T07:33:10.910Z,108
2023-04-23T07:34:10.357Z,108
2023-04-23T07:35:10.722Z,108
2023-04-23T07:36:10.739Z,108
2023-04-23T07:37:10.605Z,108
2023-04-23T07:38:10.939Z,108
2023-04-23T07:39:11.268Z,108
2023-04-23T07:40:10.183Z,108
2023-04-23T07:41:10.260Z,108
2023-04-23T07:42:11.056Z,108
2023-04-23T07:43:11.178Z,108
2023-04-23T07:44:11.248Z,108
2023-04-23T07:45:10.577Z,108
2023-04-23T07:46:10.896Z,108
2023-04-23T07:47:11.097Z,108
2023-04-23T07:48:11.245Z,108
2023-04-23T07:52:10.791Z,108
2023-04-23T07:53:11.285Z,108
2023-04-23T07:54:10.521Z,108
2023-04-23T07:55:10.924Z,108
2023-04-23T07:56:11.031Z,108
2023-04-23T07:57:10.344Z,108
2023-04-23T07:58:10.610Z,108
2023-04-23T07:59:10.664Z,108
2023-04-23T08:00:10.643Z,108
2023-04-23T08:01:10.975Z,108
2023-04-23T08:02:10.695Z,108
2023-04-23T08:03:11.257Z,108
2023-04-23T08:04:11.742Z,108
2023-04-23T08:05:12.005Z,108
2023-04-23T08:06:10.258Z,108
2023-04-23T08:07:10.805Z,110
2023-04-23T08:13:10.421Z,110
2023-04-23T08:14:10.555Z,110
2023-04-23T08:15:11.088Z,110
2023-04-23T08:16:11.373Z,110
2023-04-23T08:17:11.108Z,110
2023-04-23T08:18:10.383Z,110
2023-04-23T08:19:14.804Z,110
2023-04-23T08:20:11.234Z,110
2023-04-23T08:21:10.623Z,110
2023-04-23T08:24:10.183Z,110
2023-04-23T08:25:10.692Z,110
2023-04-23T08:26:10.903Z,110
2023-04-23T08:27:11.141Z,110
2023-04-23T08:28:10.191Z,110
2023-04-23T08:29:13.666Z,110
2023-04-23T08:31:33.275Z,110
2023-04-23T08:33:11.444Z,110
2023-04-23T08:34:10.331Z,110
2023-04-23T08:35:10.569Z,110
2023-04-23T08:36:10.483Z,110
2023-04-23T08:37:31.125Z,110
2023-04-23T08:39:10.241Z,110
2023-04-23T08:40:10.604Z,110
2023-04-23T08:41:10.694Z,110
2023-04-23T08:42:11.031Z,110
2023-04-23T08:43:11.236Z,110
2023-04-23T08:44:10.405Z,110
2023-04-23T08:45:10.901Z,110
2023-04-23T08:46:11.005Z,110
2023-04-23T08:47:11.439Z,110
2023-04-23T08:48:10.797Z,110
2023-04-23T08:49:10.550Z,110
2023-04-23T08:50:11.064Z,110
2023-04-23T08:51:10.184Z,110
2023-04-23T08:52:10.466Z,110
2023-04-23T08:53:10.947Z,110
2023-04-23T08:54:11.214Z,110
2023-04-23T08:59:10.508Z,110
2023-04-23T09:00:10.626Z,110
2023-04-23T09:01:11.176Z,110
2023-04-23T09:04:10.795Z,110
2023-04-23T09:05:11.124Z,110
2023-04-23T09:06:10.855Z,110
2023-04-23T09:07:10.338Z,108
2023-04-23T09:08:10.449Z,108
2023-04-23T09:09:10.637Z,108
2023-04-23T09:10:11.058Z,108
2023-04-23T09:11:10.271Z,108
2023-04-23T09:12:10.716Z,108
2023-04-23T09:13:11.111Z,108
2023-04-23T09:17:11.370Z,108
2023-04-23T09:18:10.466Z,108
2023-04-23T09:19:10.715Z,108
2023-04-23T09:20:09.822Z,108
2023-04-23T09:21:10.288Z,108
2023-04-23T09:22:10.409Z,108
2023-04-23T09:23:10.722Z,108
2023-04-23T09:24:10.418Z,108
2023-04-23T09:25:10.876Z,108
2023-04-23T09:26:10.798Z,108
2023-04-23T09:28:10.224Z,108
2023-04-23T09:29:10.687Z,108
2023-04-23T09:30:10.989Z,108
2023-04-23T09:31:11.096Z,108
2023-04-23T09:32:11.705Z,108
2023-04-23T09:33:10.623Z,108
2023-04-23T09:34:09.942Z,108
2023-04-23T09:35:10.317Z,108
2023-04-23T09:36:11.056Z,108
2023-04-23T09:37:11.303Z,108
2023-04-23T09:38:10.496Z,108
2023-04-23T09:39:10.794Z,108
2023-04-23T09:40:11.209Z,108
2023-04-23T09:41:10.218Z,108
2023-04-23T09:42:10.430Z,108
2023-04-23T09:43:10.800Z,108
2023-04-23T09:44:11.057Z,108
2023-04-23T09:45:11.089Z,108
2023-04-23T09:46:11.445Z,108
2023-04-23T09:47:11.007Z,108
2023-04-23T09:48:11.264Z,108
2023-04-23T09:49:10.366Z,108
2023-04-23T09:50:10.766Z,108
2023-04-23T09:51:10.862Z,108
2023-04-23T09:52:11.107Z,108
2023-04-23T09:56:10.576Z,108
2023-04-23T09:57:10.776Z,108
2023-04-23T09:58:10.957Z,108
2023-04-23T09:59:10.347Z,108
2023-04-23T10:00:24.319Z,108
2023-04-23T10:02:10.628Z,108
2023-04-23T10:03:11.693Z,108
2023-04-23T10:04:11.801Z,108
2023-04-23T10:06:03.630Z,108
2023-04-23T10:07:27.092Z,112
2023-04-23T10:09:11.000Z,112
2023-04-23T10:10:11.422Z,112
2023-04-23T10:11:25.943Z,112
2023-04-23T10:13:10.765Z,112
2023-04-23T10:14:10.926Z,112
2023-04-23T10:15:10.473Z,112
2023-04-23T10:16:48.537Z,112
2023-04-23T10:18:11.141Z,112
2023-04-23T10:19:10.411Z,112
2023-04-23T10:20:10.703Z,112
2023-04-23T10:21:10.947Z,112
2023-04-23T10:22:25.263Z,112
2023-04-23T10:24:11.036Z,112
2023-04-23T10:25:11.478Z,112
2023-04-23T10:26:10.279Z,112
2023-04-23T10:27:40.054Z,112
2023-04-23T10:28:10.269Z,112
2023-04-23T10:29:10.548Z,112
2023-04-23T10:30:13.391Z,112
2023-04-23T10:31:11.365Z,112
2023-04-23T10:32:10.442Z,112
2023-04-23T10:33:45.932Z,112
2023-04-23T10:35:11.328Z,112
2023-04-23T10:37:10.386Z,112
2023-04-23T10:38:10.768Z,112
2023-04-23T10:39:10.535Z,112
2023-04-23T10:40:11.487Z,112
2023-04-23T10:45:27.940Z,112
2023-04-23T10:47:11.116Z,112
2023-04-23T10:48:11.201Z,112
2023-04-23T10:49:10.407Z,112
2023-04-23T10:50:10.759Z,112
2023-04-23T10:52:25.895Z,112
2023-04-23T10:54:10.695Z,112
2023-04-23T10:55:11.482Z,112
2023-04-23T10:59:10.392Z,112
2023-04-23T11:00:10.648Z,112
2023-04-23T11:01:10.390Z,112
2023-04-23T11:02:10.964Z,112
2023-04-23T11:03:11.331Z,112
2023-04-23T11:04:11.225Z,112
2023-04-23T11:05:10.366Z,112
2023-04-23T11:06:11.038Z,112
2023-04-23T11:07:11.229Z,112
2023-04-23T11:08:25.256Z,112
2023-04-23T11:10:11.068Z,112
2023-04-23T11:11:10.667Z,112
2023-04-23T11:12:10.981Z,112
2023-04-23T11:13:10.369Z,112
2023-04-23T11:14:10.716Z,112
2023-04-23T11:15:11.039Z,112
2023-04-23T11:16:10.936Z,112
2023-04-23T11:19:10.497Z,112
2023-04-23T11:20:10.894Z,112
2023-04-23T11:21:11.076Z,112
2023-04-23T11:22:10.332Z,112
2023-04-23T11:23:10.696Z,112
2023-04-23T11:24:11.047Z,112
2023-04-23T11:25:10.927Z,112
2023-04-23T11:26:10.498Z,112
2023-04-23T11:27:10.669Z,112
2023-04-23T11:28:10.962Z,112
2023-04-23T11:29:10.374Z,112
2023-04-23T11:30:10.584Z,112
2023-04-23T11:31:10.486Z,112
2023-04-23T11:32:13.088Z,112
2023-04-23T11:33:11.083Z,112
2023-04-23T11:34:10.566Z,112
2023-04-23T11:35:13.691Z,112
2023-04-23T11:36:10.647Z,112
2023-04-23T11:37:10.993Z,112
2023-04-23T11:38:11.216Z,112
2023-04-23T11:39:10.542Z,112
2023-04-23T11:40:10.641Z,112
2023-04-23T11:41:10.879Z,112
2023-04-23T11:42:11.097Z,112
2023-04-23T11:43:10.995Z,112
2023-04-23T11:44:11.023Z,112
2023-04-23T11:46:10.494Z,112
2023-04-23T11:47:10.813Z,112
2023-04-23T11:48:11.539Z,112
2023-04-23T11:49:10.409Z,112
2023-04-23T11:50:10.798Z,112
2023-04-23T11:51:10.759Z,112
2023-04-23T11:52:11.059Z,112
2023-04-23T11:54:10.131Z,112
2023-04-23T11:55:10.750Z,112
2023-04-23T11:56:10.951Z,112
2023-04-23T12:02:10.383Z,112
2023-04-23T12:03:12.022Z,112
2023-04-23T12:04:11.567Z,112
2023-04-23T12:06:10.743Z,112
2023-04-23T12:07:32.232Z,106
2023-04-23T12:09:10.945Z,106
2023-04-23T12:10:11.220Z,106
2023-04-23T12:11:10.271Z,106
2023-04-23T12:12:10.825Z,106
2023-04-23T12:13:10.953Z,106
2023-04-23T12:14:11.131Z,106
2023-04-23T12:16:13.456Z,106
2023-04-23T12:17:11.178Z,106
2023-04-23T12:19:10.580Z,106
2023-04-23T12:20:11.008Z,106
2023-04-23T12:21:10.277Z,106
2023-04-23T12:22:10.345Z,106
2023-04-23T12:23:10.913Z,106
2023-04-23T12:24:10.998Z,106
2023-04-23T12:25:10.614Z,106
2023-04-23T12:26:10.642Z,106
2023-04-23T12:27:10.769Z,106
2023-04-23T12:28:10.834Z,106
2023-04-23T12:29:10.338Z,106
2023-04-23T12:30:14.302Z,106
2023-04-23T12:31:10.876Z,106
2023-04-23T12:34:10.388Z,106
2023-04-23T12:35:10.845Z,106
2023-04-23T12:36:10.923Z,106
2023-04-23T12:37:09.415Z,106
2023-04-23T12:38:10.571Z,106
2023-04-23T12:39:10.784Z,106
2023-04-23T12:40:11.509Z,106
2023-04-23T12:41:10.692Z,106
2023-04-23T12:42:11.311Z,106
2023-04-23T12:43:11.191Z,106
2023-04-23T12:46:10.773Z,106
2023-04-23T12:47:11.200Z,106
2023-04-23T12:48:11.286Z,106
2023-04-23T12:51:10.565Z,106
2023-04-23T12:52:12.934Z,106
2023-04-23T12:54:10.255Z,106
2023-04-23T12:55:10.871Z,106
2023-04-23T12:56:11.138Z,106
2023-04-23T12:57:10.430Z,106
2023-04-23T12:58:10.574Z,106
2023-04-23T12:59:10.895Z,106
2023-04-23T13:00:11.020Z,106
2023-04-23T13:01:11.587Z,106
2023-04-23T13:02:11.070Z,106
2023-04-23T13:03:11.531Z,106
2023-04-23T13:05:10.296Z,106
2023-04-23T13:06:10.803Z,106
2023-04-23T13:07:11.102Z,105
2023-04-23T13:08:10.368Z,105
2023-04-23T13:09:10.401Z,105
2023-04-23T13:10:10.849Z,105
2023-04-23T13:11:10.887Z,105
2023-04-23T13:12:11.250Z,105
2023-04-23T13:13:10.424Z,105
2023-04-23T13:14:10.642Z,105
2023-04-23T13:15:11.182Z,105
2023-04-23T13:16:10.292Z,105
2023-04-23T13:17:10.583Z,105
2023-04-23T13:18:11.062Z,105
2023-04-23T13:19:11.199Z,105
2023-04-23T13:20:10.527Z,105
2023-04-23T13:21:10.430Z,105
2023-04-23T13:22:10.727Z,105
2023-04-23T13:23:11.005Z,105
2023-04-23T13:24:10.302Z,105
2023-04-23T13:25:10.924Z,105
2023-04-23T13:26:10.253Z,105
2023-04-23T13:27:10.288Z,105
2023-04-23T13:28:10.616Z,105
2023-04-23T13:33:10.497Z,105
2023-04-23T13:34:10.693Z,105
2023-04-23T13:35:11.038Z,105
2023-04-23T13:36:11.154Z,105
2023-04-23T13:37:10.178Z,105
2023-04-23T13:38:10.635Z,105
2023-04-23T13:39:10.735Z,105
2023-04-23T13:40:11.202Z,105
2023-04-23T13:41:10.309Z,105
2023-04-23T13:42:16.301Z,105
2023-04-23T13:45:10.701Z,105
2023-04-23T13:46:10.835Z,105
2023-04-23T13:47:10.748Z,105
2023-04-23T13:48:11.215Z,105
2023-04-23T13:51:38.523Z,105
2023-04-23T13:53:10.833Z,105
2023-04-23T13:54:10.683Z,105
2023-04-23T13:58:12.178Z,105
2023-04-23T13:59:27.089Z,105
2023-04-23T14:01:11.582Z,105
2023-04-23T14:02:10.435Z,105
2023-04-23T14:03:11.196Z,105
2023-04-23T14:04:13.601Z,105
2023-04-23T14:06:10.440Z,105
2023-04-23T14:07:10.581Z,103
2023-04-23T14:08:10.747Z,103
2023-04-23T14:09:11.040Z,103
2023-04-23T14:10:11.331Z,103
2023-04-23T14:11:10.244Z,103
2023-04-23T14:12:10.762Z,103
2023-04-23T14:13:11.219Z,103
2023-04-23T14:14:10.465Z,103
2023-04-23T14:15:10.646Z,103
2023-04-23T14:16:11.218Z,103
2023-04-23T14:17:11.168Z,103
2023-04-23T14:18:10.580Z,103
2023-04-23T14:22:09.997Z,103
2023-04-23T14:23:10.979Z,103
2023-04-23T14:24:10.151Z,103
2023-04-23T14:25:10.864Z,103
2023-04-23T14:26:10.862Z,103
2023-04-23T14:27:12.347Z,103
2023-04-23T14:28:10.416Z,103
2023-04-23T14:29:10.839Z,103
2023-04-23T14:30:11.024Z,103
2023-04-23T14:31:10.922Z,103
2023-04-23T14:32:11.122Z,103
2023-04-23T14:33:10.397Z,103
2023-04-23T14:34:10.463Z,103
2023-04-23T14:35:10.631Z,103
2023-04-23T14:36:11.001Z,103
2023-04-23T14:37:11.160Z,103
2023-04-23T14:41:10.500Z,103
2023-04-23T14:42:10.509Z,103
2023-04-23T14:43:23.273Z,103
2023-04-23T14:45:10.478Z,103
2023-04-23T14:46:09.575Z,103
2023-04-23T14:47:10.858Z,103
2023-04-23T14:48:11.360Z,103
2023-04-23T14:49:10.303Z,103
2023-04-23T14:50:11.046Z,103
2023-04-23T14:51:11.137Z,103
2023-04-23T14:52:11.306Z,103
2023-04-23T14:53:10.363Z,103
2023-04-23T14:54:10.655Z,103
2023-04-23T14:55:11.052Z,103
2023-04-23T14:56:10.965Z,103
2023-04-23T14:58:10.758Z,103
2023-04-23T14:59:10.948Z,103
2023-04-23T15:00:11.329Z,103
2023-04-23T15:01:12.771Z,103
2023-04-23T15:02:11.409Z,103
2023-04-23T15:03:11.256Z,103
2023-04-23T15:04:11.160Z,103
2023-04-23T15:06:10.903Z,103
2023-04-23T15:07:11.064Z,103
2023-04-23T15:08:10.345Z,103
2023-04-23T15:09:10.705Z,103
2023-04-23T15:10:11.086Z,103
2023-04-23T15:11:10.196Z,103
2023-04-23T15:12:10.888Z,103
2023-04-23T15:13:11.004Z,103
2023-04-23T15:15:11.049Z,103
2023-04-23T15:16:11.103Z,103
2023-04-23T15:17:10.402Z,103
2023-04-23T15:18:10.829Z,103
2023-04-23T15:20:10.454Z,103
2023-04-23T15:21:10.382Z,103
2023-04-23T15:22:10.865Z,103
2023-04-23T15:23:10.996Z,103
2023-04-23T15:24:11.133Z,103
2023-04-23T15:25:10.051Z,103
2023-04-23T15:26:10.754Z,103
2023-04-23T15:27:11.012Z,103
2023-04-23T15:28:10.271Z,103
2023-04-23T15:29:10.499Z,103
2023-04-23T15:30:10.950Z,103
2023-04-23T15:33:10.346Z,103
2023-04-23T15:34:11.765Z,103
2023-04-23T15:36:10.579Z,103
2023-04-23T15:37:10.939Z,103
2023-04-23T15:38:10.996Z,103
2023-04-23T15:39:10.191Z,103
2023-04-23T15:40:10.623Z,103
2023-04-23T15:41:11.146Z,103
2023-04-23T15:42:10.524Z,103
2023-04-23T15:43:10.595Z,103
2023-04-23T15:44:11.147Z,103
2023-04-23T15:45:10.589Z,103
2023-04-23T15:46:10.925Z,103
2023-04-23T15:47:11.152Z,103
2023-04-23T15:48:10.309Z,103
2023-04-23T15:49:10.556Z,103
2023-04-23T15:50:10.823Z,103
2023-04-23T15:51:11.118Z,103
2023-04-23T15:53:10.181Z,103
2023-04-23T15:54:11.170Z,103
2023-04-23T15:56:11.121Z,103
2023-04-23T15:57:10.012Z,103
2023-04-23T15:58:10.437Z,103
2023-04-23T15:59:10.726Z,103
2023-04-23T16:00:10.994Z,103
2023-04-23T16:01:10.947Z,103
2023-04-23T16:02:11.564Z,103
2023-04-23T16:03:10.615Z,103
2023-04-23T16:04:20.628Z,103
2023-04-23T16:06:12.021Z,103
2023-04-23T16:07:10.519Z,105
2023-04-23T16:10:10.579Z,105
2023-04-23T16:11:10.821Z,105
2023-04-23T16:12:11.874Z,105
2023-04-23T16:16:10.594Z,105
2023-04-23T16:17:11.221Z,105
2023-04-23T16:18:11.182Z,105
2023-04-23T16:19:10.367Z,105
2023-04-23T16:20:10.799Z,105
2023-04-23T16:24:10.280Z,105
2023-04-23T16:25:10.651Z,105
2023-04-23T16:26:10.918Z,105
2023-04-23T16:27:11.033Z,105
2023-04-23T16:28:10.382Z,105
2023-04-23T16:29:28.649Z,105
2023-04-23T16:30:11.086Z,105
2023-04-23T16:31:11.009Z,105
2023-04-23T16:32:09.501Z,105
2023-04-23T16:33:11.062Z,105
2023-04-23T16:34:10.796Z,105
2023-04-23T16:35:11.269Z,105
2023-04-23T16:36:10.832Z,105
2023-04-23T16:41:11.086Z,105
2023-04-23T16:42:10.390Z,105
2023-04-23T16:43:10.853Z,105
2023-04-23T16:44:11.033Z,105
2023-04-23T16:45:11.542Z,105
2023-04-23T16:46:10.989Z,105
2023-04-23T16:47:11.056Z,105
2023-04-23T16:49:10.461Z,105
2023-04-23T16:50:11.513Z,105
2023-04-23T16:51:11.323Z,105
2023-04-23T16:52:11.642Z,105
2023-04-23T16:53:10.671Z,105
2023-04-23T16:54:10.776Z,105
2023-04-23T16:55:11.780Z,105
2023-04-23T16:56:11.154Z,105
2023-04-23T16:59:10.733Z,105
2023-04-23T17:00:11.226Z,105
2023-04-23T17:01:10.377Z,105
2023-04-23T17:02:11.316Z,105